sensor_id;sensor_type;location;lat;lon;timestamp;pressure;altitude;pressure_sealevel;temperature;humidity
40918;BME280;26644;50.248;19.032;2023-03-16T00:01:34;98311.06;;;1.24;67.27
40918;BME280;26644;50.248;19.032;2023-03-16T00:04:39;98304.63;;;1.18;67.75
40918;BME280;26644;50.248;19.032;2023-03-16T00:07:52;98295.59;;;1.06;67.95
40918;BME280;26644;50.248;19.032;2023-03-16T00:10:57;98286.69;;;0.99;68.04
40918;BME280;26644;50.248;19.032;2023-03-16T00:14:03;98303.03;;;1.10;68.08
40918;BME280;26644;50.248;19.032;2023-03-16T00:17:09;98309.50;;;1.09;68.54
40918;BME280;26644;50.248;19.032;2023-03-16T00:20:20;98292.34;;;0.97;68.55
40918;BME280;26644;50.248;19.032;2023-03-16T00:23:28;98307.34;;;0.93;68.66
40918;BME280;26644;50.248;19.032;2023-03-16T00:26:36;98312.53;;;0.94;69.05
40918;BME280;26644;50.248;19.032;2023-03-16T00:29:43;98314.00;;;0.90;69.30
40918;BME280;26644;50.248;19.032;2023-03-16T00:32:50;98300.78;;;0.82;69.33
40918;BME280;26644;50.248;19.032;2023-03-16T00:35:56;98303.31;;;0.77;69.22
40918;BME280;26644;50.248;19.032;2023-03-16T00:39:08;98312.78;;;0.86;69.68
40918;BME280;26644;50.248;19.032;2023-03-16T00:42:16;98290.63;;;0.77;69.43
40918;BME280;26644;50.248;19.032;2023-03-16T00:45:25;98319.06;;;0.87;69.60
40918;BME280;26644;50.248;19.032;2023-03-16T00:48:29;98320.31;;;0.84;69.63
40918;BME280;26644;50.248;19.032;2023-03-16T00:51:36;98313.88;;;0.79;69.98
40918;BME280;26644;50.248;19.032;2023-03-16T00:54:49;98319.06;;;0.80;69.71
40918;BME280;26644;50.248;19.032;2023-03-16T00:57:57;98290.28;;;0.67;69.75
40918;BME280;26644;50.248;19.032;2023-03-16T01:01:07;98318.66;;;0.83;69.80
40918;BME280;26644;50.248;19.032;2023-03-16T01:04:15;98310.38;;;0.78;69.94
40918;BME280;26644;50.248;19.032;2023-03-16T01:07:21;98299.88;;;0.63;70.18
40918;BME280;26644;50.248;19.032;2023-03-16T01:10:29;98317.69;;;0.71;70.06
40918;BME280;26644;50.248;19.032;2023-03-16T01:13:34;98311.94;;;0.60;70.26
40918;BME280;26644;50.248;19.032;2023-03-16T01:16:39;98315.03;;;0.64;70.28
40918;BME280;26644;50.248;19.032;2023-03-16T01:19:46;98326.91;;;0.63;70.47
40918;BME280;26644;50.248;19.032;2023-03-16T01:22:52;98320.88;;;0.61;70.54
40918;BME280;26644;50.248;19.032;2023-03-16T01:25:59;98326.91;;;0.63;70.65
40918;BME280;26644;50.248;19.032;2023-03-16T01:29:05;98325.47;;;0.60;70.72
40918;BME280;26644;50.248;19.032;2023-03-16T01:32:11;98317.81;;;0.51;70.58
40918;BME280;26644;50.248;19.032;2023-03-16T01:35:17;98334.41;;;0.54;70.85
40918;BME280;26644;50.248;19.032;2023-03-16T01:38:24;98322.84;;;0.47;70.93
40918;BME280;26644;50.248;19.032;2023-03-16T01:41:33;98340.28;;;0.51;71.05
40918;BME280;26644;50.248;19.032;2023-03-16T01:44:52;98339.66;;;0.49;70.99
40918;BME280;26644;50.248;19.032;2023-03-16T01:48:09;98334.28;;;0.42;71.10
40918;BME280;26644;50.248;19.032;2023-03-16T01:51:18;98315.22;;;0.31;71.24
40918;BME280;26644;50.248;19.032;2023-03-16T01:54:30;98336.16;;;0.42;71.30
40918;BME280;26644;50.248;19.032;2023-03-16T01:57:44;98338.66;;;0.43;71.45
40918;BME280;26644;50.248;19.032;2023-03-16T02:00:51;98328.72;;;0.31;71.42
40918;BME280;26644;50.248;19.032;2023-03-16T02:04:07;98338.69;;;0.37;71.86
40918;BME280;26644;50.248;19.032;2023-03-16T02:07:27;98350.13;;;0.32;71.69
40918;BME280;26644;50.248;19.032;2023-03-16T02:10:36;98343.06;;;0.31;72.04
40918;BME280;26644;50.248;19.032;2023-03-16T02:13:47;98351.38;;;0.30;72.13
40918;BME280;26644;50.248;19.032;2023-03-16T02:16:53;98348.88;;;0.28;72.25
40918;BME280;26644;50.248;19.032;2023-03-16T02:20:10;98357.22;;;0.26;72.12
40918;BME280;26644;50.248;19.032;2023-03-16T02:23:26;98343.53;;;0.15;72.27
40918;BME280;26644;50.248;19.032;2023-03-16T02:26:40;98346.47;;;0.13;72.29
40918;BME280;26644;50.248;19.032;2023-03-16T02:30:04;98357.03;;;0.15;72.55
40918;BME280;26644;50.248;19.032;2023-03-16T02:33:22;98370.31;;;0.16;72.40
40918;BME280;26644;50.248;19.032;2023-03-16T02:36:32;98383.22;;;0.14;72.72
40918;BME280;26644;50.248;19.032;2023-03-16T02:39:38;98389.88;;;0.12;72.84
40918;BME280;26644;50.248;19.032;2023-03-16T02:42:54;98378.91;;;-0.00;72.83
40918;BME280;26644;50.248;19.032;2023-03-16T02:46:08;98394.06;;;0.01;73.15
40918;BME280;26644;50.248;19.032;2023-03-16T02:49:19;98398.41;;;0.02;73.63
40918;BME280;26644;50.248;19.032;2023-03-16T02:52:28;98405.06;;;-0.01;73.66
40918;BME280;26644;50.248;19.032;2023-03-16T02:55:33;98391.19;;;-0.11;73.67
40918;BME280;26644;50.248;19.032;2023-03-16T02:58:39;98409.00;;;-0.03;73.86
40918;BME280;26644;50.248;19.032;2023-03-16T03:01:51;98415.47;;;-0.04;73.71
40918;BME280;26644;50.248;19.032;2023-03-16T03:04:57;98425.19;;;-0.03;73.91
40918;BME280;26644;50.248;19.032;2023-03-16T03:08:03;98427.91;;;-0.10;73.96
40918;BME280;26644;50.248;19.032;2023-03-16T03:11:09;98416.09;;;-0.16;74.01
40918;BME280;26644;50.248;19.032;2023-03-16T03:14:14;98428.97;;;-0.11;74.26
40918;BME280;26644;50.248;19.032;2023-03-16T03:17:26;98426.50;;;-0.13;74.24
40918;BME280;26644;50.248;19.032;2023-03-16T03:20:31;98437.06;;;-0.11;74.18
40918;BME280;26644;50.248;19.032;2023-03-16T03:23:37;98433.31;;;-0.10;74.45
40918;BME280;26644;50.248;19.032;2023-03-16T03:26:42;98436.84;;;-0.10;74.24
40918;BME280;26644;50.248;19.032;2023-03-16T03:29:55;98430.63;;;-0.10;74.70
40918;BME280;26644;50.248;19.032;2023-03-16T03:33:05;98429.38;;;-0.14;74.38
40918;BME280;26644;50.248;19.032;2023-03-16T03:36:11;98444.97;;;-0.10;74.26
40918;BME280;26644;50.248;19.032;2023-03-16T03:39:19;98442.25;;;-0.10;74.53
40918;BME280;26644;50.248;19.032;2023-03-16T03:42:26;98449.72;;;-0.12;74.56
40918;BME280;26644;50.248;19.032;2023-03-16T03:45:31;98449.50;;;-0.10;74.49
40918;BME280;26644;50.248;19.032;2023-03-16T03:48:40;98455.97;;;-0.11;74.40
40918;BME280;26644;50.248;19.032;2023-03-16T03:51:44;98452.63;;;-0.13;74.38
40918;BME280;26644;50.248;19.032;2023-03-16T03:54:53;98462.19;;;-0.17;74.43
40918;BME280;26644;50.248;19.032;2023-03-16T03:57:58;98466.78;;;-0.25;73.59
40918;BME280;26644;50.248;19.032;2023-03-16T04:01:04;98476.13;;;-0.34;73.67
40918;BME280;26644;50.248;19.032;2023-03-16T04:04:13;98463.88;;;-0.50;73.53
40918;BME280;26644;50.248;19.032;2023-03-16T04:07:18;98459.50;;;-0.71;73.99
40918;BME280;26644;50.248;19.032;2023-03-16T04:10:27;98474.81;;;-0.71;74.46
40918;BME280;26644;50.248;19.032;2023-03-16T04:13:35;98478.75;;;-0.74;74.92
40918;BME280;26644;50.248;19.032;2023-03-16T04:16:40;98482.31;;;-0.74;74.92
40918;BME280;26644;50.248;19.032;2023-03-16T04:19:50;98486.47;;;-0.71;74.92
40918;BME280;26644;50.248;19.032;2023-03-16T04:22:55;98484.16;;;-0.67;75.13
40918;BME280;26644;50.248;19.032;2023-03-16T04:26:02;98475.66;;;-0.78;74.83
40918;BME280;26644;50.248;19.032;2023-03-16T04:29:07;98488.94;;;-0.76;75.11
40918;BME280;26644;50.248;19.032;2023-03-16T04:32:13;98490.16;;;-0.85;74.72
40918;BME280;26644;50.248;19.032;2023-03-16T04:35:22;98484.31;;;-1.02;74.58
40918;BME280;26644;50.248;19.032;2023-03-16T04:38:32;98489.06;;;-1.04;74.82
40918;BME280;26644;50.248;19.032;2023-03-16T04:41:40;98493.19;;;-1.15;74.76
40918;BME280;26644;50.248;19.032;2023-03-16T04:44:51;98484.03;;;-1.28;75.38
40918;BME280;26644;50.248;19.032;2023-03-16T04:47:56;98486.91;;;-1.29;75.61
40918;BME280;26644;50.248;19.032;2023-03-16T04:51:05;98498.50;;;-1.35;75.85
40918;BME280;26644;50.248;19.032;2023-03-16T04:54:13;98493.91;;;-1.42;76.13
40918;BME280;26644;50.248;19.032;2023-03-16T04:57:19;98495.97;;;-1.44;76.40
40918;BME280;26644;50.248;19.032;2023-03-16T05:00:27;98502.78;;;-1.48;76.28
40918;BME280;26644;50.248;19.032;2023-03-16T05:03:48;98489.28;;;-1.61;76.67
40918;BME280;26644;50.248;19.032;2023-03-16T05:06:56;98503.81;;;-1.49;76.88
40918;BME280;26644;50.248;19.032;2023-03-16T05:10:08;98508.97;;;-1.54;76.87
40918;BME280;26644;50.248;19.032;2023-03-16T05:13:14;98518.31;;;-1.50;77.17
40918;BME280;26644;50.248;19.032;2023-03-16T05:16:23;98516.06;;;-1.46;77.33
40918;BME280;26644;50.248;19.032;2023-03-16T05:19:29;98516.91;;;-1.39;77.69
40918;BME280;26644;50.248;19.032;2023-03-16T05:22:39;98518.59;;;-1.31;77.44
40918;BME280;26644;50.248;19.032;2023-03-16T05:25:52;98521.31;;;-1.25;77.56
40918;BME280;26644;50.248;19.032;2023-03-16T05:29:01;98519.28;;;-1.22;77.16
40918;BME280;26644;50.248;19.032;2023-03-16T05:32:07;98521.38;;;-1.11;77.53
40918;BME280;26644;50.248;19.032;2023-03-16T05:35:13;98526.59;;;-1.03;76.93
40918;BME280;26644;50.248;19.032;2023-03-16T05:38:24;98526.81;;;-0.98;76.82
40918;BME280;26644;50.248;19.032;2023-03-16T05:41:30;98534.94;;;-0.84;76.63
40918;BME280;26644;50.248;19.032;2023-03-16T05:44:41;98526.47;;;-0.81;76.60
40918;BME280;26644;50.248;19.032;2023-03-16T05:48:16;98534.16;;;-0.65;76.40
40918;BME280;26644;50.248;19.032;2023-03-16T05:51:26;98529.63;;;-0.64;76.52
40918;BME280;26644;50.248;19.032;2023-03-16T05:54:34;98543.34;;;-0.46;76.50
40918;BME280;26644;50.248;19.032;2023-03-16T05:57:40;98542.94;;;-0.36;76.06
40918;BME280;26644;50.248;19.032;2023-03-16T06:00:46;98547.72;;;-0.25;75.89
40918;BME280;26644;50.248;19.032;2023-03-16T06:04:02;98558.91;;;-0.14;75.29
40918;BME280;26644;50.248;19.032;2023-03-16T06:07:12;98551.25;;;-0.11;75.30
40918;BME280;26644;50.248;19.032;2023-03-16T06:10:20;98560.38;;;0.02;74.70
40918;BME280;26644;50.248;19.032;2023-03-16T06:13:27;98578.66;;;0.13;74.60
40918;BME280;26644;50.248;19.032;2023-03-16T06:16:32;98579.47;;;0.20;74.07
40918;BME280;26644;50.248;19.032;2023-03-16T06:19:38;98590.09;;;0.29;74.00
40918;BME280;26644;50.248;19.032;2023-03-16T06:22:42;98587.59;;;0.40;73.96
40918;BME280;26644;50.248;19.032;2023-03-16T06:25:51;98573.66;;;0.43;73.12
40918;BME280;26644;50.248;19.032;2023-03-16T06:29:00;98586.09;;;0.58;73.18
40918;BME280;26644;50.248;19.032;2023-03-16T06:32:09;98596.47;;;0.61;73.09
40918;BME280;26644;50.248;19.032;2023-03-16T06:35:14;98596.88;;;0.78;72.71
40918;BME280;26644;50.248;19.032;2023-03-16T06:38:30;98594.16;;;0.78;72.04
40918;BME280;26644;50.248;19.032;2023-03-16T06:41:40;98607.44;;;0.93;72.16
40918;BME280;26644;50.248;19.032;2023-03-16T06:44:48;98608.63;;;1.04;72.16
40918;BME280;26644;50.248;19.032;2023-03-16T06:47:53;98595.31;;;1.09;71.07
40918;BME280;26644;50.248;19.032;2023-03-16T06:50:59;98602.97;;;1.25;71.21
40918;BME280;26644;50.248;19.032;2023-03-16T06:54:05;98604.69;;;1.58;70.77
40918;BME280;26644;50.248;19.032;2023-03-16T06:57:16;98605.13;;;2.13;69.06
40918;BME280;26644;50.248;19.032;2023-03-16T07:00:22;98621.31;;;2.88;68.10
40918;BME280;26644;50.248;19.032;2023-03-16T07:03:28;98625.44;;;3.65;66.68
40918;BME280;26644;50.248;19.032;2023-03-16T07:06:39;98617.50;;;4.36;63.54
40918;BME280;26644;50.248;19.032;2023-03-16T07:09:46;98628.75;;;5.11;61.47
40918;BME280;26644;50.248;19.032;2023-03-16T07:12:54;98636.38;;;5.78;58.56
40918;BME280;26644;50.248;19.032;2023-03-16T07:15:59;98643.19;;;6.22;56.51
40918;BME280;26644;50.248;19.032;2023-03-16T07:19:05;98645.44;;;6.42;56.70
40918;BME280;26644;50.248;19.032;2023-03-16T07:22:11;98651.16;;;6.57;56.05
40918;BME280;26644;50.248;19.032;2023-03-16T07:25:16;98651.44;;;6.78;54.73
40918;BME280;26644;50.248;19.032;2023-03-16T07:28:29;98639.63;;;6.55;53.56
40918;BME280;26644;50.248;19.032;2023-03-16T07:31:36;98652.13;;;6.51;54.25
40918;BME280;26644;50.248;19.032;2023-03-16T07:34:47;98652.34;;;6.33;53.77
40918;BME280;26644;50.248;19.032;2023-03-16T07:37:52;98656.00;;;6.21;55.05
40918;BME280;26644;50.248;19.032;2023-03-16T07:40:59;98652.94;;;6.18;54.17
40918;BME280;26644;50.248;19.032;2023-03-16T07:44:07;98655.84;;;6.45;54.03
40918;BME280;26644;50.248;19.032;2023-03-16T07:47:14;98652.78;;;6.75;53.40
40918;BME280;26644;50.248;19.032;2023-03-16T07:50:19;98665.41;;;7.33;52.58
40918;BME280;26644;50.248;19.032;2023-03-16T07:53:25;98669.53;;;8.07;49.39
40918;BME280;26644;50.248;19.032;2023-03-16T07:56:47;98672.94;;;9.11;48.81
40918;BME280;26644;50.248;19.032;2023-03-16T08:00:22;98666.44;;;9.81;46.65
40918;BME280;26644;50.248;19.032;2023-03-16T08:03:29;98658.81;;;9.99;44.58
40918;BME280;26644;50.248;19.032;2023-03-16T08:06:36;98665.38;;;9.98;45.25
40918;BME280;26644;50.248;19.032;2023-03-16T08:09:41;98682.88;;;9.76;44.71
40918;BME280;26644;50.248;19.032;2023-03-16T08:12:51;98676.63;;;9.33;45.14
40918;BME280;26644;50.248;19.032;2023-03-16T08:15:59;98687.53;;;8.90;45.52
40918;BME280;26644;50.248;19.032;2023-03-16T08:19:11;98682.72;;;9.02;45.76
40918;BME280;26644;50.248;19.032;2023-03-16T08:22:18;98678.25;;;8.58;45.96
40918;BME280;26644;50.248;19.032;2023-03-16T08:25:24;98687.88;;;8.34;46.78
40918;BME280;26644;50.248;19.032;2023-03-16T08:28:38;98678.31;;;8.09;47.30
40918;BME280;26644;50.248;19.032;2023-03-16T08:31:50;98693.13;;;8.13;47.56
40918;BME280;26644;50.248;19.032;2023-03-16T08:35:05;98681.22;;;7.75;47.51
40918;BME280;26644;50.248;19.032;2023-03-16T08:38:11;98685.91;;;7.57;47.91
40918;BME280;26644;50.248;19.032;2023-03-16T08:41:18;98700.09;;;7.54;48.44
40918;BME280;26644;50.248;19.032;2023-03-16T08:44:25;98684.06;;;7.63;48.38
40918;BME280;26644;50.248;19.032;2023-03-16T08:47:33;98699.13;;;8.37;47.87
40918;BME280;26644;50.248;19.032;2023-03-16T08:50:39;98700.22;;;9.39;46.88
40918;BME280;26644;50.248;19.032;2023-03-16T08:53:45;98685.47;;;10.24;44.51
40918;BME280;26644;50.248;19.032;2023-03-16T08:56:50;98713.56;;;11.29;43.12
40918;BME280;26644;50.248;19.032;2023-03-16T08:59:56;98709.09;;;11.64;41.64
40918;BME280;26644;50.248;19.032;2023-03-16T09:03:04;98711.28;;;11.62;40.60
40918;BME280;26644;50.248;19.032;2023-03-16T09:06:13;98697.06;;;11.29;40.48
40918;BME280;26644;50.248;19.032;2023-03-16T09:09:20;98714.00;;;11.72;40.62
40918;BME280;26644;50.248;19.032;2023-03-16T09:12:25;98697.16;;;11.94;40.08
40918;BME280;26644;50.248;19.032;2023-03-16T09:15:30;98721.34;;;12.03;39.21
40918;BME280;26644;50.248;19.032;2023-03-16T09:18:39;98726.19;;;11.40;39.30
40918;BME280;26644;50.248;19.032;2023-03-16T09:21:44;98721.53;;;10.58;40.59
40918;BME280;26644;50.248;19.032;2023-03-16T09:24:49;98720.47;;;10.90;41.02
40918;BME280;26644;50.248;19.032;2023-03-16T09:27:55;98722.41;;;11.00;40.31
40918;BME280;26644;50.248;19.032;2023-03-16T09:31:01;98717.09;;;11.50;39.91
40918;BME280;26644;50.248;19.032;2023-03-16T09:34:09;98719.84;;;11.45;38.43
40918;BME280;26644;50.248;19.032;2023-03-16T09:37:14;98724.91;;;12.03;38.01
40918;BME280;26644;50.248;19.032;2023-03-16T09:40:22;98711.72;;;12.55;36.37
40918;BME280;26644;50.248;19.032;2023-03-16T09:43:44;98734.19;;;13.07;35.84
40918;BME280;26644;50.248;19.032;2023-03-16T09:47:03;98726.34;;;13.25;34.72
40918;BME280;26644;50.248;19.032;2023-03-16T09:50:19;98740.97;;;13.79;34.79
40918;BME280;26644;50.248;19.032;2023-03-16T09:53:30;98740.66;;;13.27;33.85
40918;BME280;26644;50.248;19.032;2023-03-16T09:56:41;98734.94;;;12.34;34.70
40918;BME280;26644;50.248;19.032;2023-03-16T09:59:48;98731.97;;;11.23;36.25
40918;BME280;26644;50.248;19.032;2023-03-16T10:03:08;98741.84;;;10.57;38.25
40918;BME280;26644;50.248;19.032;2023-03-16T10:06:23;98739.63;;;9.75;39.06
40918;BME280;26644;50.248;19.032;2023-03-16T10:09:35;98736.81;;;9.17;39.84
40918;BME280;26644;50.248;19.032;2023-03-16T10:12:50;98741.09;;;9.03;40.73
40918;BME280;26644;50.248;19.032;2023-03-16T10:16:03;98741.13;;;8.81;40.91
40918;BME280;26644;50.248;19.032;2023-03-16T10:19:17;98736.56;;;8.32;41.46
40918;BME280;26644;50.248;19.032;2023-03-16T10:22:31;98739.50;;;8.03;41.71
40918;BME280;26644;50.248;19.032;2023-03-16T10:25:43;98710.41;;;7.69;41.94
40918;BME280;26644;50.248;19.032;2023-03-16T10:28:51;98746.09;;;7.62;42.93
40918;BME280;26644;50.248;19.032;2023-03-16T10:32:04;98745.06;;;7.47;43.40
40918;BME280;26644;50.248;19.032;2023-03-16T10:35:30;98728.41;;;7.09;42.48
40918;BME280;26644;50.248;19.032;2023-03-16T10:38:50;98746.25;;;6.83;43.39
40918;BME280;26644;50.248;19.032;2023-03-16T10:41:58;98745.72;;;6.52;45.07
40918;BME280;26644;50.248;19.032;2023-03-16T10:45:03;98736.34;;;6.31;44.83
40918;BME280;26644;50.248;19.032;2023-03-16T10:48:13;98700.13;;;6.06;45.09
40918;BME280;26644;50.248;19.032;2023-03-16T10:51:25;98743.75;;;6.35;45.01
40918;BME280;26644;50.248;19.032;2023-03-16T10:54:38;98747.59;;;6.51;45.11
40918;BME280;26644;50.248;19.032;2023-03-16T10:57:49;98726.97;;;6.72;45.10
40918;BME280;26644;50.248;19.032;2023-03-16T11:00:56;98732.16;;;6.74;43.69
40918;BME280;26644;50.248;19.032;2023-03-16T11:04:01;98733.66;;;6.65;43.77
40918;BME280;26644;50.248;19.032;2023-03-16T11:07:18;98725.78;;;6.51;44.20
40918;BME280;26644;50.248;19.032;2023-03-16T11:10:29;98735.81;;;6.62;44.24
40918;BME280;26644;50.248;19.032;2023-03-16T11:13:37;98688.66;;;6.50;44.45
40918;BME280;26644;50.248;19.032;2023-03-16T11:16:54;98726.03;;;7.01;44.38
40918;BME280;26644;50.248;19.032;2023-03-16T11:20:11;98702.56;;;7.00;42.86
40918;BME280;26644;50.248;19.032;2023-03-16T11:23:28;98728.25;;;7.16;43.28
40918;BME280;26644;50.248;19.032;2023-03-16T11:26:40;98724.38;;;7.34;43.06
40918;BME280;26644;50.248;19.032;2023-03-16T11:29:58;98715.28;;;7.45;42.99
40918;BME280;26644;50.248;19.032;2023-03-16T11:33:12;98717.50;;;7.48;42.74
40918;BME280;26644;50.248;19.032;2023-03-16T11:36:32;98690.78;;;7.33;41.22
40918;BME280;26644;50.248;19.032;2023-03-16T11:39:57;98712.81;;;7.26;41.46
40918;BME280;26644;50.248;19.032;2023-03-16T11:43:45;98713.81;;;7.20;41.66
40918;BME280;26644;50.248;19.032;2023-03-16T11:47:04;98711.44;;;7.07;41.96
40918;BME280;26644;50.248;19.032;2023-03-16T11:50:25;98697.69;;;6.85;41.63
40918;BME280;26644;50.248;19.032;2023-03-16T11:53:48;98677.19;;;6.65;41.02
40918;BME280;26644;50.248;19.032;2023-03-16T11:57:09;98695.78;;;6.68;38.76
40918;BME280;26644;50.248;19.032;2023-03-16T12:00:45;98693.94;;;6.57;40.09
40918;BME280;26644;50.248;19.032;2023-03-16T12:04:13;98706.13;;;6.66;41.41
40918;BME280;26644;50.248;19.032;2023-03-16T12:07:41;98704.78;;;6.69;42.28
40918;BME280;26644;50.248;19.032;2023-03-16T12:11:02;98707.34;;;6.75;42.27
40918;BME280;26644;50.248;19.032;2023-03-16T12:14:21;98700.41;;;6.85;42.52
40918;BME280;26644;50.248;19.032;2023-03-16T12:17:35;98709.28;;;6.92;42.41
40918;BME280;26644;50.248;19.032;2023-03-16T12:20:49;98703.91;;;6.97;41.30
40918;BME280;26644;50.248;19.032;2023-03-16T12:24:02;98701.16;;;6.97;40.80
40918;BME280;26644;50.248;19.032;2023-03-16T12:27:14;98693.78;;;6.98;40.48
40918;BME280;26644;50.248;19.032;2023-03-16T12:30:38;98710.69;;;6.94;41.13
40918;BME280;26644;50.248;19.032;2023-03-16T12:34:14;98694.63;;;6.81;41.48
40918;BME280;26644;50.248;19.032;2023-03-16T12:37:36;98702.06;;;6.86;40.46
40918;BME280;26644;50.248;19.032;2023-03-16T12:41:03;98698.19;;;6.82;39.51
40918;BME280;26644;50.248;19.032;2023-03-16T12:44:20;98699.34;;;6.86;39.41
40918;BME280;26644;50.248;19.032;2023-03-16T12:47:42;98691.06;;;6.81;39.74
40918;BME280;26644;50.248;19.032;2023-03-16T12:51:00;98700.31;;;6.97;39.94
40918;BME280;26644;50.248;19.032;2023-03-16T12:54:18;98693.63;;;7.04;40.20
40918;BME280;26644;50.248;19.032;2023-03-16T12:57:25;98698.19;;;7.16;40.11
40918;BME280;26644;50.248;19.032;2023-03-16T13:00:36;98699.72;;;7.28;39.52
40918;BME280;26644;50.248;19.032;2023-03-16T13:03:46;98682.72;;;7.21;38.84
40918;BME280;26644;50.248;19.032;2023-03-16T13:07:05;98702.28;;;7.35;38.30
40918;BME280;26644;50.248;19.032;2023-03-16T13:10:14;98702.41;;;7.23;38.59
40918;BME280;26644;50.248;19.032;2023-03-16T13:13:21;98711.84;;;7.33;38.91
40918;BME280;26644;50.248;19.032;2023-03-16T13:16:29;98712.38;;;7.35;38.66
40918;BME280;26644;50.248;19.032;2023-03-16T13:19:39;98706.38;;;7.33;38.82
40918;BME280;26644;50.248;19.032;2023-03-16T13:22:49;98707.44;;;7.32;38.52
40918;BME280;26644;50.248;19.032;2023-03-16T13:26:14;98692.75;;;7.16;37.99
40918;BME280;26644;50.248;19.032;2023-03-16T13:29:23;98693.81;;;7.15;38.04
40918;BME280;26644;50.248;19.032;2023-03-16T13:32:32;98713.19;;;7.13;38.37
40918;BME280;26644;50.248;19.032;2023-03-16T13:35:38;98703.97;;;7.19;38.46
40918;BME280;26644;50.248;19.032;2023-03-16T13:39:03;98708.34;;;7.37;38.11
40918;BME280;26644;50.248;19.032;2023-03-16T13:42:18;98698.66;;;7.30;38.29
40918;BME280;26644;50.248;19.032;2023-03-16T13:45:30;98707.53;;;7.37;37.76
40918;BME280;26644;50.248;19.032;2023-03-16T13:48:36;98713.50;;;7.56;37.81
40918;BME280;26644;50.248;19.032;2023-03-16T13:51:43;98712.81;;;7.66;37.14
40918;BME280;26644;50.248;19.032;2023-03-16T13:54:52;98706.41;;;7.77;37.61
40918;BME280;26644;50.248;19.032;2023-03-16T13:57:59;98699.97;;;7.88;37.54
40918;BME280;26644;50.248;19.032;2023-03-16T14:01:16;98689.03;;;7.88;36.66
40918;BME280;26644;50.248;19.032;2023-03-16T14:04:30;98708.16;;;7.88;36.51
40918;BME280;26644;50.248;19.032;2023-03-16T14:07:37;98701.19;;;7.75;36.28
40918;BME280;26644;50.248;19.032;2023-03-16T14:10:46;98708.22;;;7.49;36.50
40918;BME280;26644;50.248;19.032;2023-03-16T14:13:54;98707.75;;;7.35;37.39
40918;BME280;26644;50.248;19.032;2023-03-16T14:17:07;98708.78;;;7.29;37.57
40918;BME280;26644;50.248;19.032;2023-03-16T14:20:17;98702.34;;;7.18;37.83
40918;BME280;26644;50.248;19.032;2023-03-16T14:23:31;98703.50;;;7.05;38.15
40918;BME280;26644;50.248;19.032;2023-03-16T14:26:44;98712.25;;;7.07;38.53
40918;BME280;26644;50.248;19.032;2023-03-16T14:29:57;98701.25;;;7.02;38.61
40918;BME280;26644;50.248;19.032;2023-03-16T14:33:25;98704.72;;;6.98;38.76
40918;BME280;26644;50.248;19.032;2023-03-16T14:36:37;98687.28;;;6.82;38.84
40918;BME280;26644;50.248;19.032;2023-03-16T14:39:42;98699.66;;;6.72;39.13
40918;BME280;26644;50.248;19.032;2023-03-16T14:42:52;98709.09;;;6.65;39.25
40918;BME280;26644;50.248;19.032;2023-03-16T14:45:59;98702.81;;;6.64;39.43
40918;BME280;26644;50.248;19.032;2023-03-16T14:49:18;98706.53;;;6.58;39.30
40918;BME280;26644;50.248;19.032;2023-03-16T14:52:29;98662.50;;;6.20;37.53
40918;BME280;26644;50.248;19.032;2023-03-16T14:55:35;98710.63;;;6.43;37.07
40918;BME280;26644;50.248;19.032;2023-03-16T14:58:43;98707.34;;;6.41;37.32
40918;BME280;26644;50.248;19.032;2023-03-16T15:01:50;98695.44;;;6.31;37.54
40918;BME280;26644;50.248;19.032;2023-03-16T15:04:59;98697.47;;;6.23;37.78
40918;BME280;26644;50.248;19.032;2023-03-16T15:08:13;98714.25;;;6.32;38.13
40918;BME280;26644;50.248;19.032;2023-03-16T15:11:22;98717.72;;;6.27;38.34
40918;BME280;26644;50.248;19.032;2023-03-16T15:14:30;98716.19;;;6.20;38.60
40918;BME280;26644;50.248;19.032;2023-03-16T15:17:49;98722.66;;;6.14;38.73
40918;BME280;26644;50.248;19.032;2023-03-16T15:20:56;98707.84;;;6.09;39.00
40918;BME280;26644;50.248;19.032;2023-03-16T15:24:02;98712.13;;;6.05;38.98
40918;BME280;26644;50.248;19.032;2023-03-16T15:27:18;98698.56;;;5.93;39.24
40918;BME280;26644;50.248;19.032;2023-03-16T15:30:28;98708.97;;;5.97;39.43
40918;BME280;26644;50.248;19.032;2023-03-16T15:33:33;98693.09;;;5.93;39.18
40918;BME280;26644;50.248;19.032;2023-03-16T15:36:38;98706.09;;;6.03;38.42
40918;BME280;26644;50.248;19.032;2023-03-16T15:39:45;98709.41;;;6.05;37.74
40918;BME280;26644;50.248;19.032;2023-03-16T15:42:50;98697.81;;;5.98;37.52
40918;BME280;26644;50.248;19.032;2023-03-16T15:45:59;98706.91;;;6.04;37.24
40918;BME280;26644;50.248;19.032;2023-03-16T15:49:05;98708.56;;;6.05;37.03
40918;BME280;26644;50.248;19.032;2023-03-16T15:52:21;98711.78;;;6.02;36.62
40918;BME280;26644;50.248;19.032;2023-03-16T15:55:37;98700.06;;;5.89;37.00
40918;BME280;26644;50.248;19.032;2023-03-16T15:58:46;98719.38;;;6.00;37.01
40918;BME280;26644;50.248;19.032;2023-03-16T16:01:54;98719.63;;;5.98;37.29
40918;BME280;26644;50.248;19.032;2023-03-16T16:04:59;98718.31;;;6.01;37.19
40918;BME280;26644;50.248;19.032;2023-03-16T16:08:05;98713.34;;;5.98;37.12
40918;BME280;26644;50.248;19.032;2023-03-16T16:11:14;98721.03;;;6.01;37.36
40918;BME280;26644;50.248;19.032;2023-03-16T16:14:25;98730.03;;;6.01;37.13
40918;BME280;26644;50.248;19.032;2023-03-16T16:17:33;98726.38;;;5.95;37.08
40918;BME280;26644;50.248;19.032;2023-03-16T16:20:38;98714.94;;;5.82;37.16
40918;BME280;26644;50.248;19.032;2023-03-16T16:23:44;98733.88;;;5.88;37.14
40918;BME280;26644;50.248;19.032;2023-03-16T16:26:48;98723.31;;;5.80;37.25
40918;BME280;26644;50.248;19.032;2023-03-16T16:29:54;98726.78;;;5.75;37.36
40918;BME280;26644;50.248;19.032;2023-03-16T16:33:02;98740.53;;;5.81;37.45
40918;BME280;26644;50.248;19.032;2023-03-16T16:36:23;98743.75;;;5.77;37.67
40918;BME280;26644;50.248;19.032;2023-03-16T16:39:32;98723.50;;;5.61;37.79
40918;BME280;26644;50.248;19.032;2023-03-16T16:42:37;98735.22;;;5.62;38.33
40918;BME280;26644;50.248;19.032;2023-03-16T16:45:42;98749.91;;;5.61;38.56